sensor_id;sensor_type;location;lat;lon;timestamp;P1;durP1;ratioP1;P2;durP2;ratioP2
50789;SDS011;37287;47.554;7.844;2024-03-02T00:00:07;12.98;;;10.27;;
50789;SDS011;37287;47.554;7.844;2024-03-02T06:21:10;17.35;;;13.40;;
50789;SDS011;37287;47.554;7.844;2024-03-02T06:23:37;18.90;;;14.55;;
50789;SDS011;37287;47.554;7.844;2024-03-02T06:26:03;18.15;;;14.40;;
50789;SDS011;37287;47.554;7.844;2024-03-02T06:28:30;17.55;;;14.32;;
50789;SDS011;37287;47.554;7.844;2024-03-02T06:30:57;19.38;;;14.57;;
50789;SDS011;37287;47.554;7.844;2024-03-02T06:33:24;18.48;;;14.30;;
50789;SDS011;37287;47.554;7.844;2024-03-02T06:35:50;17.48;;;13.95;;
50789;SDS011;37287;47.554;7.844;2024-03-02T06:38:17;22.17;;;16.65;;
50789;SDS011;37287;47.554;7.844;2024-03-02T06:40:44;22.00;;;15.95;;
50789;SDS011;37287;47.554;7.844;2024-03-02T06:43:11;24.20;;;17.65;;
50789;SDS011;37287;47.554;7.844;2024-03-02T06:45:37;24.58;;;17.60;;
50789;SDS011;37287;47.554;7.844;2024-03-02T06:48:04;24.15;;;17.23;;
50789;SDS011;37287;47.554;7.844;2024-03-02T06:50:31;27.17;;;19.10;;
50789;SDS011;37287;47.554;7.844;2024-03-02T06:52:58;29.33;;;19.48;;
50789;SDS011;37287;47.554;7.844;2024-03-02T06:55:25;28.80;;;19.23;;
50789;SDS011;37287;47.554;7.844;2024-03-02T06:57:52;30.45;;;20.63;;
50789;SDS011;37287;47.554;7.844;2024-03-02T07:00:19;28.92;;;20.02;;
50789;SDS011;37287;47.554;7.844;2024-03-02T07:02:49;29.42;;;20.15;;
50789;SDS011;37287;47.554;7.844;2024-03-02T07:05:16;33.47;;;20.90;;
50789;SDS011;37287;47.554;7.844;2024-03-02T07:07:42;29.52;;;20.35;;
50789;SDS011;37287;47.554;7.844;2024-03-02T07:10:09;33.15;;;21.77;;
50789;SDS011;37287;47.554;7.844;2024-03-02T07:12:36;28.98;;;19.55;;
50789;SDS011;37287;47.554;7.844;2024-03-02T07:15:03;27.67;;;19.45;;
50789;SDS011;37287;47.554;7.844;2024-03-02T07:17:31;26.02;;;18.15;;
50789;SDS011;37287;47.554;7.844;2024-03-02T07:19:58;28.75;;;19.95;;
50789;SDS011;37287;47.554;7.844;2024-03-02T07:22:24;24.52;;;17.70;;
50789;SDS011;37287;47.554;7.844;2024-03-02T07:24:51;27.77;;;18.65;;
50789;SDS011;37287;47.554;7.844;2024-03-02T07:27:18;25.98;;;18.92;;
50789;SDS011;37287;47.554;7.844;2024-03-02T07:29:45;24.85;;;18.23;;
50789;SDS011;37287;47.554;7.844;2024-03-02T07:32:11;23.88;;;17.70;;
50789;SDS011;37287;47.554;7.844;2024-03-02T07:34:38;27.35;;;17.55;;
50789;SDS011;37287;47.554;7.844;2024-03-02T07:37:05;23.65;;;16.70;;
50789;SDS011;37287;47.554;7.844;2024-03-02T07:39:32;21.17;;;15.90;;
50789;SDS011;37287;47.554;7.844;2024-03-02T07:41:59;23.95;;;16.50;;
50789;SDS011;37287;47.554;7.844;2024-03-02T07:44:26;23.25;;;15.95;;
50789;SDS011;37287;47.554;7.844;2024-03-02T07:46:53;19.45;;;14.93;;
50789;SDS011;37287;47.554;7.844;2024-03-02T07:49:19;21.02;;;14.07;;
50789;SDS011;37287;47.554;7.844;2024-03-02T07:51:47;20.80;;;15.32;;
50789;SDS011;37287;47.554;7.844;2024-03-02T07:54:14;20.40;;;15.43;;
50789;SDS011;37287;47.554;7.844;2024-03-02T07:56:40;21.77;;;15.65;;
50789;SDS011;37287;47.554;7.844;2024-03-02T07:59:07;25.25;;;15.75;;
50789;SDS011;37287;47.554;7.844;2024-03-02T08:01:34;20.83;;;14.90;;
50789;SDS011;37287;47.554;7.844;2024-03-02T08:04:01;18.30;;;14.02;;
50789;SDS011;37287;47.554;7.844;2024-03-02T08:06:30;21.95;;;15.32;;
50789;SDS011;37287;47.554;7.844;2024-03-02T08:08:58;19.95;;;14.88;;
50789;SDS011;37287;47.554;7.844;2024-03-02T08:11:25;21.23;;;14.13;;
50789;SDS011;37287;47.554;7.844;2024-03-02T08:13:53;17.42;;;14.35;;
50789;SDS011;37287;47.554;7.844;2024-03-02T08:16:23;19.77;;;14.27;;
50789;SDS011;37287;47.554;7.844;2024-03-02T08:18:50;19.25;;;14.40;;
50789;SDS011;37287;47.554;7.844;2024-03-02T08:21:17;21.13;;;15.23;;
50789;SDS011;37287;47.554;7.844;2024-03-02T08:23:44;22.08;;;15.38;;
50789;SDS011;37287;47.554;7.844;2024-03-02T08:26:11;20.08;;;15.32;;
50789;SDS011;37287;47.554;7.844;2024-03-02T08:28:38;19.70;;;14.75;;
50789;SDS011;37287;47.554;7.844;2024-03-02T08:31:06;20.98;;;15.45;;
50789;SDS011;37287;47.554;7.844;2024-03-02T08:33:34;20.05;;;14.95;;
50789;SDS011;37287;47.554;7.844;2024-03-02T08:36:04;19.95;;;15.50;;
50789;SDS011;37287;47.554;7.844;2024-03-02T08:38:31;18.80;;;15.05;;
50789;SDS011;37287;47.554;7.844;2024-03-02T08:40:58;15.73;;;13.23;;
50789;SDS011;37287;47.554;7.844;2024-03-02T08:43:25;19.98;;;13.85;;
50789;SDS011;37287;47.554;7.844;2024-03-02T08:45:52;16.00;;;13.43;;
50789;SDS011;37287;47.554;7.844;2024-03-02T08:48:19;19.27;;;12.68;;
50789;SDS011;37287;47.554;7.844;2024-03-02T08:50:47;17.17;;;13.50;;
50789;SDS011;37287;47.554;7.844;2024-03-02T08:53:14;13.75;;;11.15;;
50789;SDS011;37287;47.554;7.844;2024-03-02T08:55:45;14.38;;;11.40;;
50789;SDS011;37287;47.554;7.844;2024-03-02T08:58:12;15.27;;;10.60;;
50789;SDS011;37287;47.554;7.844;2024-03-02T09:00:40;14.05;;;11.55;;
50789;SDS011;37287;47.554;7.844;2024-03-02T09:03:07;13.93;;;10.98;;
50789;SDS011;37287;47.554;7.844;2024-03-02T09:05:34;17.83;;;12.00;;
50789;SDS011;37287;47.554;7.844;2024-03-02T09:08:01;12.90;;;10.43;;
50789;SDS011;37287;47.554;7.844;2024-03-02T09:10:30;18.13;;;11.32;;
50789;SDS011;37287;47.554;7.844;2024-03-02T09:12:57;14.60;;;11.05;;
50789;SDS011;37287;47.554;7.844;2024-03-02T09:15:24;13.63;;;9.38;;
50789;SDS011;37287;47.554;7.844;2024-03-02T09:17:51;15.02;;;10.43;;
50789;SDS011;37287;47.554;7.844;2024-03-02T09:20:18;15.30;;;10.15;;
50789;SDS011;37287;47.554;7.844;2024-03-02T09:22:45;9.85;;;8.73;;
50789;SDS011;37287;47.554;7.844;2024-03-02T09:25:13;12.75;;;9.57;;
50789;SDS011;37287;47.554;7.844;2024-03-02T09:27:40;12.07;;;9.73;;
50789;SDS011;37287;47.554;7.844;2024-03-02T09:30:07;12.48;;;9.85;;
50789;SDS011;37287;47.554;7.844;2024-03-02T09:32:36;15.50;;;9.88;;
50789;SDS011;37287;47.554;7.844;2024-03-02T09:35:04;13.15;;;10.38;;
50789;SDS011;37287;47.554;7.844;2024-03-02T09:37:31;10.82;;;9.23;;
50789;SDS011;37287;47.554;7.844;2024-03-02T09:39:57;13.32;;;9.35;;
50789;SDS011;37287;47.554;7.844;2024-03-02T09:42:25;9.57;;;8.38;;
50789;SDS011;37287;47.554;7.844;2024-03-02T09:44:52;10.43;;;8.68;;
50789;SDS011;37287;47.554;7.844;2024-03-02T09:47:19;11.75;;;8.60;;
50789;SDS011;37287;47.554;7.844;2024-03-02T09:49:46;9.07;;;7.97;;
50789;SDS011;37287;47.554;7.844;2024-03-02T09:52:14;9.13;;;7.97;;
50789;SDS011;37287;47.554;7.844;2024-03-02T09:54:41;10.57;;;8.07;;
50789;SDS011;37287;47.554;7.844;2024-03-02T09:57:08;8.65;;;7.35;;
50789;SDS011;37287;47.554;7.844;2024-03-02T09:59:36;8.77;;;7.28;;
50789;SDS011;37287;47.554;7.844;2024-03-02T10:02:02;10.23;;;7.97;;
50789;SDS011;37287;47.554;7.844;2024-03-02T10:04:30;10.35;;;8.18;;
50789;SDS011;37287;47.554;7.844;2024-03-02T10:09:42;8.93;;;6.72;;
50789;SDS011;37287;47.554;7.844;2024-03-02T10:12:11;7.70;;;6.78;;
50789;SDS011;37287;47.554;7.844;2024-03-02T10:14:40;7.30;;;5.53;;
50789;SDS011;37287;47.554;7.844;2024-03-02T10:17:08;7.85;;;5.88;;
50789;SDS011;37287;47.554;7.844;2024-03-02T10:19:36;7.40;;;5.95;;
50789;SDS011;37287;47.554;7.844;2024-03-02T10:22:03;6.30;;;5.47;;
50789;SDS011;37287;47.554;7.844;2024-03-02T10:27:10;7.28;;;5.85;;
50789;SDS011;37287;47.554;7.844;2024-03-02T10:29:52;8.57;;;6.25;;
50789;SDS011;37287;47.554;7.844;2024-03-02T10:32:20;6.47;;;5.72;;
50789;SDS011;37287;47.554;7.844;2024-03-02T10:34:49;6.07;;;4.97;;
50789;SDS011;37287;47.554;7.844;2024-03-02T10:37:16;7.35;;;6.13;;
50789;SDS011;37287;47.554;7.844;2024-03-02T10:39:46;7.00;;;5.75;;
50789;SDS011;37287;47.554;7.844;2024-03-02T10:42:14;8.60;;;5.80;;
50789;SDS011;37287;47.554;7.844;2024-03-02T10:44:40;6.85;;;5.15;;
50789;SDS011;37287;47.554;7.844;2024-03-02T10:47:07;4.88;;;4.47;;
50789;SDS011;37287;47.554;7.844;2024-03-02T10:49:35;6.85;;;4.80;;
50789;SDS011;37287;47.554;7.844;2024-03-02T10:52:04;6.55;;;5.43;;
50789;SDS011;37287;47.554;7.844;2024-03-02T10:54:31;7.18;;;5.30;;
50789;SDS011;37287;47.554;7.844;2024-03-02T10:57:04;7.40;;;5.28;;
50789;SDS011;37287;47.554;7.844;2024-03-02T10:59:34;6.30;;;5.15;;
50789;SDS011;37287;47.554;7.844;2024-03-02T11:02:02;7.72;;;5.57;;
50789;SDS011;37287;47.554;7.844;2024-03-02T11:04:32;6.85;;;5.07;;
50789;SDS011;37287;47.554;7.844;2024-03-02T11:07:00;6.53;;;5.40;;
50789;SDS011;37287;47.554;7.844;2024-03-02T11:09:45;8.27;;;6.20;;
50789;SDS011;37287;47.554;7.844;2024-03-02T11:13:09;6.65;;;5.25;;
50789;SDS011;37287;47.554;7.844;2024-03-02T11:15:44;5.13;;;4.53;;
50789;SDS011;37287;47.554;7.844;2024-03-02T11:18:59;5.57;;;4.88;;
50789;SDS011;37287;47.554;7.844;2024-03-02T11:21:27;5.45;;;4.38;;
50789;SDS011;37287;47.554;7.844;2024-03-02T11:23:54;6.20;;;5.00;;
50789;SDS011;37287;47.554;7.844;2024-03-02T11:26:22;5.68;;;4.93;;
50789;SDS011;37287;47.554;7.844;2024-03-02T11:28:50;7.55;;;5.07;;
50789;SDS011;37287;47.554;7.844;2024-03-02T11:31:17;6.43;;;4.43;;
50789;SDS011;37287;47.554;7.844;2024-03-02T11:33:44;5.25;;;4.70;;
50789;SDS011;37287;47.554;7.844;2024-03-02T11:36:10;5.15;;;4.65;;
50789;SDS011;37287;47.554;7.844;2024-03-02T11:38:38;6.07;;;5.10;;
50789;SDS011;37287;47.554;7.844;2024-03-02T11:41:08;5.38;;;4.55;;
50789;SDS011;37287;47.554;7.844;2024-03-02T11:43:38;6.57;;;5.18;;
50789;SDS011;37287;47.554;7.844;2024-03-02T11:46:06;6.38;;;5.10;;
50789;SDS011;37287;47.554;7.844;2024-03-02T11:48:36;5.40;;;4.68;;
50789;SDS011;37287;47.554;7.844;2024-03-02T11:51:05;6.03;;;4.63;;
50789;SDS011;37287;47.554;7.844;2024-03-02T11:53:32;5.65;;;5.05;;
50789;SDS011;37287;47.554;7.844;2024-03-02T11:56:02;6.03;;;4.53;;
50789;SDS011;37287;47.554;7.844;2024-03-02T11:58:29;5.43;;;4.57;;
50789;SDS011;37287;47.554;7.844;2024-03-02T12:00:56;6.43;;;4.43;;
50789;SDS011;37287;47.554;7.844;2024-03-02T12:03:25;5.00;;;4.30;;
50789;SDS011;37287;47.554;7.844;2024-03-02T12:05:53;5.30;;;4.80;;
50789;SDS011;37287;47.554;7.844;2024-03-02T12:08:20;4.93;;;4.13;;
50789;SDS011;37287;47.554;7.844;2024-03-02T12:10:58;4.65;;;4.15;;
50789;SDS011;37287;47.554;7.844;2024-03-02T12:13:28;4.88;;;4.38;;
50789;SDS011;37287;47.554;7.844;2024-03-02T12:15:55;4.78;;;4.20;;
50789;SDS011;37287;47.554;7.844;2024-03-02T12:18:25;7.00;;;4.20;;
50789;SDS011;37287;47.554;7.844;2024-03-02T12:20:53;5.35;;;4.40;;
50789;SDS011;37287;47.554;7.844;2024-03-02T12:23:24;5.13;;;4.13;;
50789;SDS011;37287;47.554;7.844;2024-03-02T12:25:51;4.57;;;4.10;;
50789;SDS011;37287;47.554;7.844;2024-03-02T12:28:18;4.43;;;4.03;;
50789;SDS011;37287;47.554;7.844;2024-03-02T12:30:46;4.82;;;4.15;;
50789;SDS011;37287;47.554;7.844;2024-03-02T12:33:14;5.20;;;4.65;;
50789;SDS011;37287;47.554;7.844;2024-03-02T12:35:41;5.13;;;3.58;;
50789;SDS011;37287;47.554;7.844;2024-03-02T12:38:09;4.30;;;3.90;;
50789;SDS011;37287;47.554;7.844;2024-03-02T12:40:37;6.40;;;4.13;;
50789;SDS011;37287;47.554;7.844;2024-03-02T12:43:05;4.57;;;3.80;;
50789;SDS011;37287;47.554;7.844;2024-03-02T12:45:33;3.90;;;3.50;;
50789;SDS011;37287;47.554;7.844;2024-03-02T12:48:00;4.70;;;3.53;;
50789;SDS011;37287;47.554;7.844;2024-03-02T12:50:28;4.10;;;3.50;;
50789;SDS011;37287;47.554;7.844;2024-03-02T12:52:55;3.47;;;2.83;;
50789;SDS011;37287;47.554;7.844;2024-03-02T12:55:23;4.05;;;3.65;;
50789;SDS011;37287;47.554;7.844;2024-03-02T12:57:50;5.80;;;3.88;;
50789;SDS011;37287;47.554;7.844;2024-03-02T13:00:19;5.10;;;3.40;;
50789;SDS011;37287;47.554;7.844;2024-03-02T13:02:49;4.13;;;3.30;;
50789;SDS011;37287;47.554;7.844;2024-03-02T13:05:18;3.25;;;2.95;;
50789;SDS011;37287;47.554;7.844;2024-03-02T13:07:47;4.55;;;3.05;;
50789;SDS011;37287;47.554;7.844;2024-03-02T13:10:14;3.30;;;2.80;;
50789;SDS011;37287;47.554;7.844;2024-03-02T13:12:42;3.85;;;3.00;;
50789;SDS011;37287;47.554;7.844;2024-03-02T13:15:09;3.30;;;2.83;;
50789;SDS011;37287;47.554;7.844;2024-03-02T13:17:41;4.18;;;3.15;;
50789;SDS011;37287;47.554;7.844;2024-03-02T13:20:08;3.63;;;2.78;;
50789;SDS011;37287;47.554;7.844;2024-03-02T13:22:37;4.45;;;2.85;;
50789;SDS011;37287;47.554;7.844;2024-03-02T13:25:04;2.67;;;2.25;;
50789;SDS011;37287;47.554;7.844;2024-03-02T13:27:33;2.70;;;2.40;;
50789;SDS011;37287;47.554;7.844;2024-03-02T13:30:04;2.50;;;2.30;;
50789;SDS011;37287;47.554;7.844;2024-03-02T13:32:35;2.10;;;2.00;;
50789;SDS011;37287;47.554;7.844;2024-03-02T13:35:04;2.33;;;1.85;;
50789;SDS011;37287;47.554;7.844;2024-03-02T13:37:31;3.33;;;2.22;;
50789;SDS011;37287;47.554;7.844;2024-03-02T13:39:58;3.20;;;1.70;;
50789;SDS011;37287;47.554;7.844;2024-03-02T13:42:25;2.10;;;1.90;;
50789;SDS011;37287;47.554;7.844;2024-03-02T13:44:53;3.35;;;2.13;;
50789;SDS011;37287;47.554;7.844;2024-03-02T13:47:20;2.58;;;1.85;;
50789;SDS011;37287;47.554;7.844;2024-03-02T13:49:47;3.38;;;1.95;;
50789;SDS011;37287;47.554;7.844;2024-03-02T13:52:15;3.22;;;1.88;;
50789;SDS011;37287;47.554;7.844;2024-03-02T13:54:44;1.98;;;1.70;;
50789;SDS011;37287;47.554;7.844;2024-03-02T13:57:12;2.45;;;1.95;;
50789;SDS011;37287;47.554;7.844;2024-03-02T13:59:40;1.80;;;1.65;;
50789;SDS011;37287;47.554;7.844;2024-03-02T14:02:08;1.70;;;1.60;;
50789;SDS011;37287;47.554;7.844;2024-03-02T14:04:35;1.92;;;1.60;;
50789;SDS011;37287;47.554;7.844;2024-03-02T14:07:03;1.58;;;1.48;;
50789;SDS011;37287;47.554;7.844;2024-03-02T14:09:30;2.88;;;1.70;;
50789;SDS011;37287;47.554;7.844;2024-03-02T14:11:57;1.80;;;1.60;;
50789;SDS011;37287;47.554;7.844;2024-03-02T14:14:24;2.00;;;1.80;;
50789;SDS011;37287;47.554;7.844;2024-03-02T14:16:53;1.95;;;1.83;;
50789;SDS011;37287;47.554;7.844;2024-03-02T14:19:22;3.38;;;2.20;;
50789;SDS011;37287;47.554;7.844;2024-03-02T14:21:48;2.17;;;1.75;;
50789;SDS011;37287;47.554;7.844;2024-03-02T14:24:15;2.85;;;2.05;;
50789;SDS011;37287;47.554;7.844;2024-03-02T14:26:42;3.72;;;1.65;;
50789;SDS011;37287;47.554;7.844;2024-03-02T14:29:09;2.60;;;1.85;;
50789;SDS011;37287;47.554;7.844;2024-03-02T14:31:36;2.20;;;1.73;;
50789;SDS011;37287;47.554;7.844;2024-03-02T14:34:02;3.92;;;2.05;;
50789;SDS011;37287;47.554;7.844;2024-03-02T14:36:29;2.17;;;1.80;;
50789;SDS011;37287;47.554;7.844;2024-03-02T14:38:57;2.80;;;1.85;;
50789;SDS011;37287;47.554;7.844;2024-03-02T14:41:23;3.30;;;1.98;;
50789;SDS011;37287;47.554;7.844;2024-03-02T14:43:51;2.45;;;1.70;;
50789;SDS011;37287;47.554;7.844;2024-03-02T14:46:18;2.33;;;1.98;;
50789;SDS011;37287;47.554;7.844;2024-03-02T14:48:46;2.55;;;1.67;;
50789;SDS011;37287;47.554;7.844;2024-03-02T14:51:13;4.15;;;2.00;;
50789;SDS011;37287;47.554;7.844;2024-03-02T14:53:40;2.25;;;1.65;;
50789;SDS011;37287;47.554;7.844;2024-03-02T14:56:08;2.78;;;2.00;;
50789;SDS011;37287;47.554;7.844;2024-03-02T14:58:35;2.38;;;1.73;;
50789;SDS011;37287;47.554;7.844;2024-03-02T15:01:04;2.25;;;1.70;;
50789;SDS011;37287;47.554;7.844;2024-03-02T15:03:35;2.92;;;1.73;;
50789;SDS011;37287;47.554;7.844;2024-03-02T15:06:02;2.83;;;1.90;;
50789;SDS011;37287;47.554;7.844;2024-03-02T15:08:30;2.10;;;1.90;;
50789;SDS011;37287;47.554;7.844;2024-03-02T15:10:57;3.25;;;1.92;;
50789;SDS011;37287;47.554;7.844;2024-03-02T15:13:26;2.10;;;1.65;;
50789;SDS011;37287;47.554;7.844;2024-03-02T15:15:53;2.58;;;1.90;;
50789;SDS011;37287;47.554;7.844;2024-03-02T15:18:20;2.58;;;1.77;;
50789;SDS011;37287;47.554;7.844;2024-03-02T15:20:47;3.25;;;2.53;;
50789;SDS011;37287;47.554;7.844;2024-03-02T15:23:14;2.92;;;2.35;;
50789;SDS011;37287;47.554;7.844;2024-03-02T15:25:41;3.70;;;2.22;;
50789;SDS011;37287;47.554;7.844;2024-03-02T15:28:08;3.60;;;2.17;;
50789;SDS011;37287;47.554;7.844;2024-03-02T15:30:35;2.88;;;2.50;;
50789;SDS011;37287;47.554;7.844;2024-03-02T15:33:02;3.00;;;2.40;;
50789;SDS011;37287;47.554;7.844;2024-03-02T15:35:30;2.78;;;2.30;;
50789;SDS011;37287;47.554;7.844;2024-03-02T15:37:56;3.53;;;2.47;;
50789;SDS011;37287;47.554;7.844;2024-03-02T15:40:23;2.78;;;2.47;;
50789;SDS011;37287;47.554;7.844;2024-03-02T15:42:50;3.65;;;2.30;;
50789;SDS011;37287;47.554;7.844;2024-03-02T15:45:17;2.63;;;2.42;;
50789;SDS011;37287;47.554;7.844;2024-03-02T15:47:43;3.42;;;2.47;;
50789;SDS011;37287;47.554;7.844;2024-03-02T15:50:10;2.72;;;2.40;;
50789;SDS011;37287;47.554;7.844;2024-03-02T15:52:39;3.42;;;2.30;;
50789;SDS011;37287;47.554;7.844;2024-03-02T15:55:05;3.13;;;2.47;;
50789;SDS011;37287;47.554;7.844;2024-03-02T15:57:33;2.40;;;2.20;;
50789;SDS011;37287;47.554;7.844;2024-03-02T16:00:00;2.97;;;2.33;;
50789;SDS011;37287;47.554;7.844;2024-03-02T16:02:27;2.75;;;2.40;;
50789;SDS011;37287;47.554;7.844;2024-03-02T16:04:54;3.10;;;2.17;;
50789;SDS011;37287;47.554;7.844;2024-03-02T16:07:21;2.60;;;2.40;;
50789;SDS011;37287;47.554;7.844;2024-03-02T16:09:47;2.53;;;2.10;;
50789;SDS011;37287;47.554;7.844;2024-03-02T16:12:14;2.53;;;2.17;;
50789;SDS011;37287;47.554;7.844;2024-03-02T16:14:42;1.95;;;1.80;;
50789;SDS011;37287;47.554;7.844;2024-03-02T16:17:08;3.03;;;1.73;;
50789;SDS011;37287;47.554;7.844;2024-03-02T16:19:35;2.97;;;1.80;;
50789;SDS011;37287;47.554;7.844;2024-03-02T16:22:06;2.25;;;1.58;;
50789;SDS011;37287;47.554;7.844;2024-03-02T16:24:34;1.65;;;1.50;;
50789;SDS011;37287;47.554;7.844;2024-03-02T16:27:01;1.95;;;1.70;;
50789;SDS011;37287;47.554;7.844;2024-03-02T16:29:28;1.40;;;1.30;;
50789;SDS011;37287;47.554;7.844;2024-03-02T16:31:55;2.13;;;1.52;;
50789;SDS011;37287;47.554;7.844;2024-03-02T16:34:22;1.52;;;1.42;;
50789;SDS011;37287;47.554;7.844;2024-03-02T16:36:48;1.50;;;1.40;;
50789;SDS011;37287;47.554;7.844;2024-03-02T16:39:15;1.92;;;1.33;;
50789;SDS011;37287;47.554;7.844;2024-03-02T16:41:42;1.60;;;1.40;;
50789;SDS011;37287;47.554;7.844;2024-03-02T16:44:13;2.05;;;1.48;;
50789;SDS011;37287;47.554;7.844;2024-03-02T16:46:40;3.35;;;1.30;;
50789;SDS011;37287;47.554;7.844;2024-03-02T16:49:07;2.13;;;1.60;;
50789;SDS011;37287;47.554;7.844;2024-03-02T16:51:40;1.58;;;1.30;;
50789;SDS011;37287;47.554;7.844;2024-03-02T16:54:10;2.97;;;1.80;;
50789;SDS011;37287;47.554;7.844;2024-03-02T16:56:40;5.13;;;2.17;;
50789;SDS011;37287;47.554;7.844;2024-03-02T16:59:08;2.25;;;1.73;;
50789;SDS011;37287;47.554;7.844;2024-03-02T17:01:36;2.97;;;2.13;;
50789;SDS011;37287;47.554;7.844;2024-03-02T17:04:03;3.00;;;1.95;;
50789;SDS011;37287;47.554;7.844;2024-03-02T17:06:34;2.58;;;2.10;;
50789;SDS011;37287;47.554;7.844;2024-03-02T17:09:04;2.20;;;2.00;;
50789;SDS011;37287;47.554;7.844;2024-03-02T17:11:31;2.25;;;1.58;;
50789;SDS011;37287;47.554;7.844;2024-03-02T17:13:58;2.13;;;1.77;;
50789;SDS011;37287;47.554;7.844;2024-03-02T17:16:26;2.28;;;1.60;;
50789;SDS011;37287;47.554;7.844;2024-03-02T17:18:53;2.47;;;1.60;;
50789;SDS011;37287;47.554;7.844;2024-03-02T17:21:20;4.53;;;1.70;;
50789;SDS011;37287;47.554;7.844;2024-03-02T17:23:48;3.67;;;1.85;;
50789;SDS011;37287;47.554;7.844;2024-03-02T17:26:14;1.65;;;1.55;;
50789;SDS011;37287;47.554;7.844;2024-03-02T17:28:41;1.50;;;1.40;;
50789;SDS011;37287;47.554;7.844;2024-03-02T17:31:08;3.95;;;1.90;;
50789;SDS011;37287;47.554;7.844;2024-03-02T17:33:35;2.47;;;2.28;;
50789;SDS011;37287;47.554;7.844;2024-03-02T17:36:02;4.25;;;2.40;;
50789;SDS011;37287;47.554;7.844;2024-03-02T17:38:30;4.53;;;3.03;;
50789;SDS011;37287;47.554;7.844;2024-03-02T17:40:57;5.55;;;3.10;;
50789;SDS011;37287;47.554;7.844;2024-03-02T17:43:24;3.08;;;2.30;;
50789;SDS011;37287;47.554;7.844;2024-03-02T17:45:51;2.60;;;2.00;;
50789;SDS011;37287;47.554;7.844;2024-03-02T17:48:18;2.65;;;1.95;;
50789;SDS011;37287;47.554;7.844;2024-03-02T17:50:48;2.75;;;2.10;;
50789;SDS011;37287;47.554;7.844;2024-03-02T17:53:16;3.47;;;2.05;;
50789;SDS011;37287;47.554;7.844;2024-03-02T17:55:43;4.03;;;2.45;;
50789;SDS011;37287;47.554;7.844;2024-03-02T17:58:10;2.63;;;2.17;;
50789;SDS011;37287;47.554;7.844;2024-03-02T18:00:37;3.22;;;2.30;;
50789;SDS011;37287;47.554;7.844;2024-03-02T18:03:04;3.72;;;2.53;;
50789;SDS011;37287;47.554;7.844;2024-03-02T18:05:34;2.95;;;2.35;;
50789;SDS011;37287;47.554;7.844;2024-03-02T18:08:03;3.20;;;2.33;;
50789;SDS011;37287;47.554;7.844;2024-03-02T18:10:30;2.72;;;2.20;;
50789;SDS011;37287;47.554;7.844;2024-03-02T18:12:57;3.00;;;2.38;;
50789;SDS011;37287;47.554;7.844;2024-03-02T18:15:24;3.58;;;1.83;;
50789;SDS011;37287;47.554;7.844;2024-03-02T18:17:52;2.90;;;2.47;;
50789;SDS011;37287;47.554;7.844;2024-03-02T18:20:18;3.63;;;2.35;;
50789;SDS011;37287;47.554;7.844;2024-03-02T18:22:45;4.80;;;2.60;;
50789;SDS011;37287;47.554;7.844;2024-03-02T18:25:12;3.72;;;3.13;;
50789;SDS011;37287;47.554;7.844;2024-03-02T18:27:39;4.30;;;3.05;;
50789;SDS011;37287;47.554;7.844;2024-03-02T18:30:06;4.45;;;2.97;;
50789;SDS011;37287;47.554;7.844;2024-03-02T18:32:37;3.38;;;2.70;;
50789;SDS011;37287;47.554;7.844;2024-03-02T18:35:05;3.05;;;2.75;;
50789;SDS011;37287;47.554;7.844;2024-03-02T18:37:32;3.20;;;2.85;;
50789;SDS011;37287;47.554;7.844;2024-03-02T18:39:59;4.55;;;2.88;;
50789;SDS011;37287;47.554;7.844;2024-03-02T18:42:26;3.20;;;2.90;;
50789;SDS011;37287;47.554;7.844;2024-03-02T18:44:53;4.47;;;3.08;;
50789;SDS011;37287;47.554;7.844;2024-03-02T18:47:20;2.80;;;2.50;;
50789;SDS011;37287;47.554;7.844;2024-03-02T18:49:47;3.17;;;2.80;;
50789;SDS011;37287;47.554;7.844;2024-03-02T18:52:14;3.55;;;2.85;;
50789;SDS011;37287;47.554;7.844;2024-03-02T18:54:41;4.00;;;2.95;;
50789;SDS011;37287;47.554;7.844;2024-03-02T18:57:08;3.47;;;2.72;;
50789;SDS011;37287;47.554;7.844;2024-03-02T18:59:36;3.25;;;2.80;;
50789;SDS011;37287;47.554;7.844;2024-03-02T19:02:03;3.38;;;2.97;;
50789;SDS011;37287;47.554;7.844;2024-03-02T19:04:30;3.20;;;2.78;;
50789;SDS011;37287;47.554;7.844;2024-03-02T19:06:57;3.95;;;3.25;;
50789;SDS011;37287;47.554;7.844;2024-03-02T19:09:25;5.10;;;3.17;;
50789;SDS011;37287;47.554;7.844;2024-03-02T19:11:51;3.10;;;2.80;;
50789;SDS011;37287;47.554;7.844;2024-03-02T19:14:18;3.83;;;2.65;;
50789;SDS011;37287;47.554;7.844;2024-03-02T19:16:45;3.38;;;2.85;;
50789;SDS011;37287;47.554;7.844;2024-03-02T19:19:11;4.68;;;3.30;;
50789;SDS011;37287;47.554;7.844;2024-03-02T19:21:39;2.70;;;2.50;;
50789;SDS011;37287;47.554;7.844;2024-03-02T19:24:06;3.28;;;2.40;;
50789;SDS011;37287;47.554;7.844;2024-03-02T19:26:33;2.72;;;2.30;;
50789;SDS011;37287;47.554;7.844;2024-03-02T19:29:00;5.95;;;3.97;;
50789;SDS011;37287;47.554;7.844;2024-03-02T19:31:27;7.97;;;5.00;;
50789;SDS011;37287;47.554;7.844;2024-03-02T19:33:53;8.43;;;4.50;;
50789;SDS011;37287;47.554;7.844;2024-03-02T19:36:20;7.78;;;4.90;;
50789;SDS011;37287;47.554;7.844;2024-03-02T19:38:47;9.88;;;5.97;;
50789;SDS011;37287;47.554;7.844;2024-03-02T19:41:14;9.88;;;5.90;;
50789;SDS011;37287;47.554;7.844;2024-03-02T19:43:42;10.43;;;6.05;;
50789;SDS011;37287;47.554;7.844;2024-03-02T19:46:12;8.98;;;5.28;;
50789;SDS011;37287;47.554;7.844;2024-03-02T19:48:39;10.38;;;5.20;;
50789;SDS011;37287;47.554;7.844;2024-03-02T19:51:06;9.77;;;5.38;;
50789;SDS011;37287;47.554;7.844;2024-03-02T19:53:32;7.45;;;4.97;;
50789;SDS011;37287;47.554;7.844;2024-03-02T19:55:59;8.75;;;5.28;;
50789;SDS011;37287;47.554;7.844;2024-03-02T19:58:26;6.65;;;4.82;;
50789;SDS011;37287;47.554;7.844;2024-03-02T20:00:52;7.75;;;4.93;;
50789;SDS011;37287;47.554;7.844;2024-03-02T20:03:20;8.52;;;4.65;;
50789;SDS011;37287;47.554;7.844;2024-03-02T20:05:49;6.97;;;4.47;;
50789;SDS011;37287;47.554;7.844;2024-03-02T20:08:15;6.90;;;5.00;;
50789;SDS011;37287;47.554;7.844;2024-03-02T20:10:42;8.00;;;5.50;;
50789;SDS011;37287;47.554;7.844;2024-03-02T20:13:12;7.90;;;5.10;;
50789;SDS011;37287;47.554;7.844;2024-03-02T20:15:39;6.57;;;4.55;;
50789;SDS011;37287;47.554;7.844;2024-03-02T20:18:07;6.38;;;4.60;;
50789;SDS011;37287;47.554;7.844;2024-03-02T20:20:33;5.88;;;4.57;;
50789;SDS011;37287;47.554;7.844;2024-03-02T20:23:00;7.18;;;4.75;;
50789;SDS011;37287;47.554;7.844;2024-03-02T20:25:27;7.93;;;4.80;;
50789;SDS011;37287;47.554;7.844;2024-03-02T20:27:54;7.25;;;5.22;;
50789;SDS011;37287;47.554;7.844;2024-03-02T20:30:21;8.45;;;4.78;;
50789;SDS011;37287;47.554;7.844;2024-03-02T20:32:48;5.35;;;4.40;;
50789;SDS011;37287;47.554;7.844;2024-03-02T20:35:14;7.13;;;4.75;;
50789;SDS011;37287;47.554;7.844;2024-03-02T20:37:41;5.72;;;3.90;;
50789;SDS011;37287;47.554;7.844;2024-03-02T20:40:08;5.40;;;4.35;;
50789;SDS011;37287;47.554;7.844;2024-03-02T20:42:35;5.88;;;4.20;;
50789;SDS011;37287;47.554;7.844;2024-03-02T20:45:03;7.15;;;4.57;;
50789;SDS011;37287;47.554;7.844;2024-03-02T20:47:30;6.63;;;5.05;;
50789;SDS011;37287;47.554;7.844;2024-03-02T20:49:58;6.07;;;4.38;;
50789;SDS011;37287;47.554;7.844;2024-03-02T20:52:24;5.30;;;4.07;;
50789;SDS011;37287;47.554;7.844;2024-03-02T20:54:51;5.40;;;4.07;;
50789;SDS011;37287;47.554;7.844;2024-03-02T20:57:18;5.82;;;3.90;;
50789;SDS011;37287;47.554;7.844;2024-03-02T20:59:45;4.28;;;3.78;;
50789;SDS011;37287;47.554;7.844;2024-03-02T21:02:13;5.68;;;4.25;;
50789;SDS011;37287;47.554;7.844;2024-03-02T21:04:40;3.88;;;3.45;;
50789;SDS011;37287;47.554;7.844;2024-03-02T21:07:08;4.82;;;3.35;;